Latest METARs, TAFs and NOTAMs for SKCG


---------------------------------------------------------------------------
	(OBSERVATIONS)
SKCG 170900Z 00000KT 8000 NSC 28/27 A2973 RMK HZ=
SKCG 170800Z 03004KT 010V080 9000 NSC 28/27 A2973 RMK HZ=
SKCG 170700Z 06007KT 350V090 9999 FEW013 BKN200 28/27 A2974=
---------------------------------------------------------------------------
	(TERMINAL AREA FORECAST)
SKCG 170500Z 1706/1806 04005KT 9999 FEW017 SCT200
    BECMG 1715/1716 31010KT SCT017
    TX35/1718Z TN25/1711Z=
---------------------------------------------------------------------------
	(NOTAMS)


SKCG A0542/17 FIRE FIGHTING AND RESCUE CHG TO CAT 8. TUE, THU,
    SAT BTN 2100-2359 WED, FRI, SUN, BTN 0000-0015, 28 MAR 21:00
    2017 UNTIL PERM. CREATED: 23 FEB 19:57 2017

SKCG A2254/17 RWY 01/19 AVBL ONLY TKOF. DLY BTN 1030-1115, 30
    SEP 10:30 2017 UNTIL 30 MAR 11:15 2018. CREATED: 16 AUG 18:58
    2017

SKCG A2684/17 RWY 01/19 CLSD. SEP 23 BTN 0900-1030 SEP 30/17
    TIL MAR 30/18 BTN 0615-1030, 23 SEP 09:00 2017 UNTIL 30 MAR
    10:30 2018. CREATED: 22 SEP 22:28 2017

SKCG A2776/17 TRIGGER NOTAM - AIP SUP A41/17 WEF 09 NOV 2017
    SID REF AIP AD 2 - SKCG SID6. 09 NOV 00:00 2017 UNTIL 23
    NOV 23:59 2017. CREATED: 03 OCT 03:38 2017

SKCG A2814/17 PAPI R SIDE RWY 01 U/S. H24, 06 OCT 10:30 2017
    UNTIL 30 MAR 10:30 2018. CREATED: 06 OCT 16:43 2017

SKCG A2923/17 RWY 01/19 CLSD. DLY BTN 0615-1030 EXC OCT 22,29
    EXC NOV 05,12,19,26 OCT 17 BTN 0730-1030, 17 OCT 07:30 2017
    UNTIL 30 MAR 10:30 2018. CREATED: 17 OCT 00:06 2017

SKCG A2924/17 TRIGGER NOTAM - AIRAC AIP SUP A53/17 WEF 17OCT2017
    DISPLACED THRESHOLD RWY 01 REF. AIP AD 2.12, 2.13, ADC, IAC
    1, IAC 2. 17 OCT 01:45 2017 UNTIL 31 OCT 23:59 2017. CREATED:
    17 OCT 01:48 2017

SKCG A2997/09 FIRE FIGHTING AND RESCUE DOWNGRADED TO CAT 7 09
    DEC 20:30 UNTIL 10 DEC 23:00 ESTIMATED

---------------------------------------------------------------------------